ADDS METAR Data INFO
IDs: Format: Raw Decoded Include TAF

Data at: 0457 UTC 23 May 2017

KSOA 230435Z AUTO 00000KT 10SM FEW021 21/19 A3002 RMK AO2 LTG DSNT N AND NE
KSOA 230415Z AUTO 00000KT 10SM BKN021 21/19 A2999 RMK AO2
KSOA 230355Z AUTO VRB04KT 10SM BKN022 BKN038 BKN045 21/19 A2998 RMK AO2
KSOA 230335Z AUTO 00000KT 10SM FEW023 SCT036 SCT044 21/19 A3000 RMK AO2
KSOA 230315Z AUTO 00000KT 10SM VCTS BKN023 BKN030 BKN036 21/19 A3004 RMK AO2 LTG DSNT NW-NE
KSOA 230255Z AUTO 34005KT 10SM FEW023 FEW029 FEW050 21/19 A3003 RMK AO2 LTG DSNT N AND NW
KSOA 230235Z AUTO 00000KT 9SM FEW050 22/19 A3002 RMK AO2 LTG DSNT N AND NW
KSOA 230215Z AUTO 00000KT 10SM -RA BKN048 22/19 A3001 RMK AO2 LTG DSNT NW
KSOA 230155Z AUTO 00000KT 10SM -RA BKN047 22/19 A2999 RMK AO2
KSOA 230135Z AUTO 00000KT 10SM -RA FEW024 BKN047 22/19 A2998 RMK AO2
KSOA 230115Z AUTO 00000KT 10SM -RA FEW024 BKN047 22/19 A2996 RMK AO2
KSOA 230055Z AUTO 13005KT 10SM BKN047 23/19 A2996 RMK AO2
KSOA 230035Z AUTO 11008KT SCT045 23/19 A2995 RMK AO2
KSOA 230015Z AUTO 13005KT 10SM FEW033 FEW038 BKN046 23/19 A2996 RMK AO2
KSOA 222355Z AUTO 12007KT 10SM FEW036 BKN047 24/18 A2996 RMK AO2
KSOA 222335Z AUTO 12005KT 10SM SCT029 SCT036 BKN046 24/19 A2996 RMK AO2
KSOA 222315Z AUTO 10005KT 10SM OVC028 24/18 A2997 RMK AO2
KSOA 222255Z AUTO 11004KT 10SM BKN026 OVC034 24/19 A2998 RMK AO2
KSOA 222235Z AUTO 11005KT 10SM SCT026 OVC033 24/18 A2998 RMK AO2
KSOA 222215Z AUTO 00000KT 10SM SCT025 BKN030 OVC038 24/18 A2998 RMK AO2
KSOA 222155Z AUTO 09005KT 10SM BKN024 BKN030 BKN038 24/18 A2998 RMK AO2
KSOA 222135Z AUTO VRB05KT 10SM BKN022 BKN031 BKN039 24/18 A2999 RMK AO2
KSOA 222115Z AUTO 12005KT 10SM BKN019 BKN026 BKN032 24/18 A2999 RMK AO2
KSOA 222055Z AUTO 14006KT 10SM BKN018 BKN024 BKN032 23/18 A3001 RMK AO2
KSOA 222035Z AUTO 09006KT 10SM BKN016 BKN021 OVC060 23/18 A3002 RMK AO2
KSOA 222015Z AUTO 09004KT 10SM OVC015 22/18 A3003 RMK AO2
KSOA 221955Z AUTO VRB05KT 10SM OVC013 21/18 A3004 RMK AO2
KSOA 221935Z AUTO 11006KT 10SM OVC012 21/18 A3005 RMK AO2
KSOA 221915Z AUTO 12006KT 10SM OVC011 20/18 A3005 RMK AO2
KSOA 221855Z AUTO VRB05KT 10SM OVC010 20/18 A3006 RMK AO2
KSOA 221835Z AUTO 08006KT 10SM OVC009 20/17 A3006 RMK AO2
KSOA 221815Z AUTO 06006KT 10SM OVC009 19/17 A3007 RMK AO2
KSOA 221755Z AUTO 06005KT 10SM OVC009 19/17 A3007 RMK AO2
KSOA 221735Z AUTO 06005KT 10SM OVC009 19/17 A3008 RMK AO2
KSOA 221715Z AUTO 06006KT OVC009 19/17 A3009 RMK AO2
KSOA 221655Z AUTO 08004KT 10SM OVC009 19/17 A3009 RMK AO2
KSOA 221635Z AUTO 05006KT 10SM OVC008 19/17 A3008 RMK AO2
KSOA 221615Z AUTO 00000KT 10SM OVC007 18/17 A3008 RMK AO2
KSOA 221555Z AUTO 06004KT 10SM OVC006 18/17 A3009 RMK AO2
KSOA 221535Z AUTO 08006KT 10SM OVC005 17/17 A3009 RMK AO2
KSOA 221515Z AUTO 06005KT 9SM OVC005 17/17 A3010 RMK AO2
KSOA 221455Z AUTO 07006KT 7SM OVC005 17/17 A3010 RMK AO2
KSOA 221435Z AUTO 00000KT 9SM OVC004 16/16 A3010 RMK AO2
KSOA 221415Z AUTO 00000KT 7SM OVC003 16/16 A3010 RMK AO2
KSOA 221355Z AUTO 00000KT 4SM BR OVC002 16/16 A3009 RMK AO2
KSOA 221335Z AUTO 06004KT 5SM BR OVC002 16/16 A3009 RMK AO2
KSOA 221315Z AUTO 00000KT 2 1/2SM BR OVC001 16/16 A3009 RMK AO2
KSOA 221255Z AUTO 00000KT 1 1/2SM BR OVC001 16/16 A3010 RMK AO2
KSOA 221235Z AUTO 00000KT 3SM BR OVC002 16/16 A3010 RMK AO2
KSOA 221215Z AUTO 00000KT 5SM BR OVC002 16/16 A3010 RMK AO2
KSOA 221155Z AUTO 00000KT 6SM BR OVC004 16/16 A3010 RMK AO2
KSOA 221135Z AUTO 00000KT 10SM OVC004 16/16 A3011 RMK AO2
KSOA 221115Z AUTO 00000KT 9SM OVC005 16/16 A3011 RMK AO2
KSOA 221055Z AUTO 00000KT 5SM -RA OVC005 16/16 A3011 RMK AO2
KSOA 221035Z AUTO 00000KT 8SM OVC005 16/16 A3011 RMK AO2
KSOA 221015Z AUTO 00000KT 8SM BKN004 OVC007 16/16 A3010 RMK AO2
KSOA 220955Z AUTO 00000KT 9SM OVC003 16/16 A3011 RMK AO2
KSOA 220935Z AUTO 05003KT 8SM OVC002 15/15 A3011 RMK AO2
KSOA 220915Z AUTO 04003KT 2 1/2SM BR OVC001 15/15 A3012 RMK AO2 VIS 2V5
KSOA 220855Z AUTO 05005KT 1 1/4SM BR OVC001 15/15 A3013 RMK AO2
KSOA 220835Z AUTO 08006KT 1SM BR OVC001 15/15 A3014 RMK AO2
KSOA 220815Z AUTO 00000KT 1 1/4SM BR OVC001 15/15 A3014 RMK AO2
KSOA 220755Z AUTO 00000KT 3SM BR BKN001 OVC005 15/15 A3015 RMK AO2
KSOA 220735Z AUTO 00000KT 10SM OVC004 15/15 A3015 RMK AO2
KSOA 220715Z AUTO 05003KT 10SM BKN005 15/15 A3015 RMK AO2
KSOA 220655Z AUTO 00000KT 10SM CLR 15/15 A3015 RMK AO2
KSOA 220635Z AUTO 00000KT 10SM CLR 15/15 A3014 RMK AO2
KSOA 220615Z AUTO 00000KT 10SM FEW003 15/15 A3014 RMK AO2
KSOA 220555Z AUTO 04003KT 10SM BKN004 15/15 A3015 RMK AO2
KSOA 220535Z AUTO 05003KT 10SM BKN005 OVC008 16/15 A3015 RMK AO2
KSOA 220515Z AUTO 08003KT 10SM BKN006 OVC009 16/15 A3015 RMK AO2
KSOA 220455Z AUTO 11003KT 10SM SCT007 16/16 A3015 RMK AO2
KSOA 220435Z AUTO 00000KT 10SM CLR 16/16 A3014 RMK AO2
KSOA 220415Z AUTO 00000KT 10SM BKN006 16/16 A3014 RMK AO2
KSOA 220355Z AUTO 06005G10KT 10SM OVC006 16/16 A3014 RMK AO2
KSOA 220335Z AUTO 06005KT 10SM OVC005 16/16 A3014 RMK AO2
KSOA 220315Z AUTO 10005G12KT 10SM OVC005 16/16 A3013 RMK AO2
KSOA 220255Z AUTO 09007KT 10SM BKN007 16/16 A3013 RMK AO2
KSOA 220235Z AUTO 07004KT 10SM CLR 16/16 A3013 RMK AO2
KSOA 220215Z AUTO 00000KT 10SM CLR 16/16 A3012 RMK AO2
KSOA 220155Z AUTO 00000KT 10SM CLR 16/16 A3012 RMK AO2
KSOA 220135Z AUTO 03006KT 10SM SCT010 SCT065 17/16 A3011 RMK AO2
KSOA 220115Z AUTO 04006KT 10SM BKN010 BKN065 17/16 A3010 RMK AO2
KSOA 220055Z AUTO 00000KT 10SM BKN009 BKN013 BKN028 17/16 A3011 RMK AO2
KSOA 220035Z AUTO 09013G23KT 8SM -RA FEW002 FEW030 SCT046 16/16 A3005 RMK AO2
KSOA 220015Z AUTO 09010KT 8SM -RA FEW002 SCT034 BKN046 16/16 A3009 RMK AO2
KSOA 212355Z AUTO 04004KT 8SM -RA FEW030 SCT047 SCT075 16/16 A3014 RMK AO2
KSOA 212335Z AUTO 09008KT 7SM -RA FEW022 FEW032 SCT075 16/16 A3014 RMK AO2
KSOA 212315Z AUTO 00000KT 10SM -RA CLR 16/15 A3016 RMK AO2
KSOA 212255Z AUTO 00000KT 8SM -RA CLR 16/15 A3015 RMK AO2
KSOA 212235Z AUTO 02004KT 7SM -RA FEW016 FEW029 FEW042 16/15 A3014 RMK AO2
KSOA 212215Z AUTO 05007KT 7SM -RA FEW001 FEW028 SCT043 15/14 A3013 RMK AO2
KSOA 212155Z AUTO 05003KT 4SM -RA BKN001 BKN026 OVC045 15/14 A3015 RMK AO2
KSOA 212135Z AUTO 00000KT 3SM RA BKN001 BKN022 OVC032 15/14 A3017 RMK AO2
KSOA 212115Z AUTO 00000KT 2 1/2SM VCTS RA BKN001 BKN029 OVC039 15/14 A3018 RMK AO2 LTG DSNT E AND S
KSOA 212055Z AUTO 00000KT 2 1/2SM VCTS RA SCT001 BKN015 OVC042 16/14 A3019 RMK AO2 LTG DSNT ALQDS
KSOA 212035Z AUTO 09005KT 6SM VCTS RA FEW001 SCT031 BKN040 16/15 A3020 RMK AO2 LTG DSNT ALQDS
KSOA 212015Z AUTO 00000KT 4SM VCTS RA SCT001 BKN030 OVC045 17/16 A3018 RMK AO2 LTG DSNT ALQDS
KSOA 211955Z AUTO 03008G14KT 4SM VCTS RA SCT001 BKN029 OVC042 17/16 A3017 RMK AO2 LTG DSNT ALQDS
KSOA 211935Z AUTO 04011G19KT 2SM +TSRA SCT001 BKN029 OVC039 17/16 A3015 RMK AO2
KSOA 211915Z AUTO 04007KT 2 1/2SM VCTS RA SCT001 BKN009 OVC030 17/16 A3018 RMK AO2 LTG DSNT ALQDS
KSOA 211855Z AUTO 08010KT 1 1/2SM -TSRA SCT001 BKN009 OVC019 17/16 A3018 RMK AO2 LTG DSNT ALQDS
KSOA 211835Z AUTO VRB03KT 1 3/4SM VCTS RA SCT001 SCT010 OVC025 19/16 A3020 RMK AO2 LTG DSNT ALQDS
KSOA 211815Z AUTO VRB05KT 8SM VCTS RA OVC025 20/15 A3018 RMK AO2 LTG DSNT ALQDS
KSOA 211755Z AUTO 05007G13KT 10SM OVC024 20/15 A3015 RMK AO2 LTG DSNT ALQDS
KSOA 211735Z AUTO 08007KT 050V110 10SM OVC025 21/15 A3016 RMK AO2 LTG DSNT SE-SW
KSOA 211715Z AUTO 06007G13KT 10SM VCTS OVC024 21/15 A3017 RMK AO2 LTG DSNT S-W


Page loaded:  04:57 UTC  |   09:57 PM Pacific  |   10:57 PM Mountain  |   11:57 PM Central  |   12:57 AM Eastern

 

ADVISORIES

FORECASTS

FORECASTS

OBSERVATIONS

USER TOOLS

ABOUT US